sensor_id;sensor_type;location;lat;lon;timestamp;temperature;humidity
39023;DHT22;25908;51.984;5.928;2023-04-04T00:01:14;5.90;76.30
39023;DHT22;25908;51.984;5.928;2023-04-04T00:03:40;5.90;76.40
39023;DHT22;25908;51.984;5.928;2023-04-04T00:06:06;5.90;76.20
39023;DHT22;25908;51.984;5.928;2023-04-04T00:08:32;5.80;76.20
39023;DHT22;25908;51.984;5.928;2023-04-04T00:10:59;5.80;76.20
39023;DHT22;25908;51.984;5.928;2023-04-04T00:13:25;5.80;76.40
39023;DHT22;25908;51.984;5.928;2023-04-04T00:15:51;5.80;76.40
39023;DHT22;25908;51.984;5.928;2023-04-04T00:18:16;5.80;76.60
39023;DHT22;25908;51.984;5.928;2023-04-04T00:20:42;5.70;76.80
39023;DHT22;25908;51.984;5.928;2023-04-04T00:23:08;5.70;76.90
39023;DHT22;25908;51.984;5.928;2023-04-04T00:25:36;5.70;77.10
39023;DHT22;25908;51.984;5.928;2023-04-04T00:28:01;5.70;77.20
39023;DHT22;25908;51.984;5.928;2023-04-04T00:30:27;5.60;77.30
39023;DHT22;25908;51.984;5.928;2023-04-04T00:32:53;5.60;77.50
39023;DHT22;25908;51.984;5.928;2023-04-04T00:35:20;5.60;77.70
39023;DHT22;25908;51.984;5.928;2023-04-04T00:37:46;5.60;77.90
39023;DHT22;25908;51.984;5.928;2023-04-04T00:40:12;5.60;78.10
39023;DHT22;25908;51.984;5.928;2023-04-04T00:42:38;5.60;78.50
39023;DHT22;25908;51.984;5.928;2023-04-04T00:45:07;5.50;78.60
39023;DHT22;25908;51.984;5.928;2023-04-04T00:47:33;5.50;79.00
39023;DHT22;25908;51.984;5.928;2023-04-04T00:49:59;5.50;79.40
39023;DHT22;25908;51.984;5.928;2023-04-04T00:52:25;5.50;79.70
39023;DHT22;25908;51.984;5.928;2023-04-04T00:54:51;5.40;79.90
39023;DHT22;25908;51.984;5.928;2023-04-04T00:57:17;5.40;80.20
39023;DHT22;25908;51.984;5.928;2023-04-04T00:59:43;5.40;80.60
39023;DHT22;25908;51.984;5.928;2023-04-04T01:02:09;5.40;80.60
39023;DHT22;25908;51.984;5.928;2023-04-04T01:04:35;5.40;80.70
39023;DHT22;25908;51.984;5.928;2023-04-04T01:07:01;5.30;80.80
39023;DHT22;25908;51.984;5.928;2023-04-04T01:09:27;5.30;80.80
39023;DHT22;25908;51.984;5.928;2023-04-04T01:11:54;5.30;81.00
39023;DHT22;25908;51.984;5.928;2023-04-04T01:14:20;5.30;81.20
39023;DHT22;25908;51.984;5.928;2023-04-04T01:16:48;5.20;81.10
39023;DHT22;25908;51.984;5.928;2023-04-04T01:19:21;5.20;81.30
39023;DHT22;25908;51.984;5.928;2023-04-04T01:21:49;5.20;81.80
39023;DHT22;25908;51.984;5.928;2023-04-04T01:24:17;5.20;81.80
39023;DHT22;25908;51.984;5.928;2023-04-04T01:26:43;5.20;81.90
39023;DHT22;25908;51.984;5.928;2023-04-04T01:29:11;5.10;81.90
39023;DHT22;25908;51.984;5.928;2023-04-04T01:31:39;5.10;82.00
39023;DHT22;25908;51.984;5.928;2023-04-04T01:34:43;5.20;82.20
39023;DHT22;25908;51.984;5.928;2023-04-04T01:37:29;5.10;82.40
39023;DHT22;25908;51.984;5.928;2023-04-04T01:42:34;5.00;83.00
39023;DHT22;25908;51.984;5.928;2023-04-04T01:45:00;5.00;83.30
39023;DHT22;25908;51.984;5.928;2023-04-04T01:47:26;5.00;83.60
39023;DHT22;25908;51.984;5.928;2023-04-04T01:49:51;5.00;83.60
39023;DHT22;25908;51.984;5.928;2023-04-04T01:52:18;5.00;83.70
39023;DHT22;25908;51.984;5.928;2023-04-04T01:54:43;4.90;83.70
39023;DHT22;25908;51.984;5.928;2023-04-04T01:57:09;4.90;84.10
39023;DHT22;25908;51.984;5.928;2023-04-04T01:59:34;4.90;84.30
39023;DHT22;25908;51.984;5.928;2023-04-04T02:02:00;4.90;84.40
39023;DHT22;25908;51.984;5.928;2023-04-04T02:04:26;4.90;84.80
39023;DHT22;25908;51.984;5.928;2023-04-04T02:06:51;4.90;85.20
39023;DHT22;25908;51.984;5.928;2023-04-04T02:09:17;4.90;85.40
39023;DHT22;25908;51.984;5.928;2023-04-04T02:11:43;4.90;85.70
39023;DHT22;25908;51.984;5.928;2023-04-04T02:14:08;4.90;85.80
39023;DHT22;25908;51.984;5.928;2023-04-04T02:16:34;4.80;86.00
39023;DHT22;25908;51.984;5.928;2023-04-04T02:18:59;4.80;86.30
39023;DHT22;25908;51.984;5.928;2023-04-04T02:21:25;4.80;86.50
39023;DHT22;25908;51.984;5.928;2023-04-04T02:23:52;4.80;86.60
39023;DHT22;25908;51.984;5.928;2023-04-04T02:26:17;4.80;87.10
39023;DHT22;25908;51.984;5.928;2023-04-04T02:28:43;4.70;87.50
39023;DHT22;25908;51.984;5.928;2023-04-04T02:31:08;4.70;87.90
39023;DHT22;25908;51.984;5.928;2023-04-04T02:33:34;4.70;88.00
39023;DHT22;25908;51.984;5.928;2023-04-04T02:35:59;4.60;88.10
39023;DHT22;25908;51.984;5.928;2023-04-04T02:38:25;4.60;88.30
39023;DHT22;25908;51.984;5.928;2023-04-04T02:40:52;4.60;88.70
39023;DHT22;25908;51.984;5.928;2023-04-04T02:43:17;4.60;89.10
39023;DHT22;25908;51.984;5.928;2023-04-04T02:45:43;4.60;89.40
39023;DHT22;25908;51.984;5.928;2023-04-04T02:48:08;4.60;89.60
39023;DHT22;25908;51.984;5.928;2023-04-04T02:50:35;4.60;89.60
39023;DHT22;25908;51.984;5.928;2023-04-04T02:53:02;4.60;89.70
39023;DHT22;25908;51.984;5.928;2023-04-04T02:55:28;4.60;90.00
39023;DHT22;25908;51.984;5.928;2023-04-04T02:57:54;4.60;90.00
39023;DHT22;25908;51.984;5.928;2023-04-04T03:00:20;4.50;90.10
39023;DHT22;25908;51.984;5.928;2023-04-04T03:02:52;4.50;90.30
39023;DHT22;25908;51.984;5.928;2023-04-04T03:05:18;4.40;90.50
39023;DHT22;25908;51.984;5.928;2023-04-04T03:07:43;4.40;90.70
39023;DHT22;25908;51.984;5.928;2023-04-04T03:10:09;4.40;90.90
39023;DHT22;25908;51.984;5.928;2023-04-04T03:12:35;4.30;90.80
39023;DHT22;25908;51.984;5.928;2023-04-04T03:15:00;4.40;90.90
39023;DHT22;25908;51.984;5.928;2023-04-04T03:17:26;4.30;90.90
39023;DHT22;25908;51.984;5.928;2023-04-04T03:19:52;4.40;91.30
39023;DHT22;25908;51.984;5.928;2023-04-04T03:22:17;4.30;91.10
39023;DHT22;25908;51.984;5.928;2023-04-04T03:24:43;4.30;91.20
39023;DHT22;25908;51.984;5.928;2023-04-04T03:27:08;4.30;91.30
39023;DHT22;25908;51.984;5.928;2023-04-04T03:29:34;4.30;91.30
39023;DHT22;25908;51.984;5.928;2023-04-04T03:31:59;4.30;91.40
39023;DHT22;25908;51.984;5.928;2023-04-04T03:34:25;4.30;91.60
39023;DHT22;25908;51.984;5.928;2023-04-04T03:36:51;4.30;91.60
39023;DHT22;25908;51.984;5.928;2023-04-04T03:39:18;4.30;91.60
39023;DHT22;25908;51.984;5.928;2023-04-04T03:41:43;4.20;91.60
39023;DHT22;25908;51.984;5.928;2023-04-04T03:44:09;4.20;91.60
39023;DHT22;25908;51.984;5.928;2023-04-04T03:46:34;4.20;91.80
39023;DHT22;25908;51.984;5.928;2023-04-04T03:49:00;4.20;91.80
39023;DHT22;25908;51.984;5.928;2023-04-04T03:51:26;4.20;91.90
39023;DHT22;25908;51.984;5.928;2023-04-04T03:53:52;4.10;92.00
39023;DHT22;25908;51.984;5.928;2023-04-04T03:56:18;4.10;92.20
39023;DHT22;25908;51.984;5.928;2023-04-04T03:58:43;4.10;92.60
39023;DHT22;25908;51.984;5.928;2023-04-04T04:01:10;4.10;92.50
39023;DHT22;25908;51.984;5.928;2023-04-04T04:03:35;4.00;92.70
39023;DHT22;25908;51.984;5.928;2023-04-04T04:06:01;4.00;92.90
39023;DHT22;25908;51.984;5.928;2023-04-04T04:08:27;4.00;93.10
39023;DHT22;25908;51.984;5.928;2023-04-04T04:10:52;4.00;93.20
39023;DHT22;25908;51.984;5.928;2023-04-04T04:13:19;3.90;93.30
39023;DHT22;25908;51.984;5.928;2023-04-04T04:15:44;3.90;93.30
39023;DHT22;25908;51.984;5.928;2023-04-04T04:18:10;3.90;93.40
39023;DHT22;25908;51.984;5.928;2023-04-04T04:20:35;3.90;93.30
39023;DHT22;25908;51.984;5.928;2023-04-04T04:23:01;3.90;93.30
39023;DHT22;25908;51.984;5.928;2023-04-04T04:25:26;3.90;93.40
39023;DHT22;25908;51.984;5.928;2023-04-04T04:27:55;3.90;93.30
39023;DHT22;25908;51.984;5.928;2023-04-04T04:30:23;4.00;93.40
39023;DHT22;25908;51.984;5.928;2023-04-04T04:32:49;3.90;93.50
39023;DHT22;25908;51.984;5.928;2023-04-04T04:35:15;3.90;93.50
39023;DHT22;25908;51.984;5.928;2023-04-04T04:37:41;3.90;93.60
39023;DHT22;25908;51.984;5.928;2023-04-04T04:40:07;3.90;93.80
39023;DHT22;25908;51.984;5.928;2023-04-04T04:42:33;3.90;93.90
39023;DHT22;25908;51.984;5.928;2023-04-04T04:44:58;3.80;93.90
39023;DHT22;25908;51.984;5.928;2023-04-04T04:47:24;3.80;94.00
39023;DHT22;25908;51.984;5.928;2023-04-04T04:49:49;3.80;94.20
39023;DHT22;25908;51.984;5.928;2023-04-04T04:52:15;3.80;94.20
39023;DHT22;25908;51.984;5.928;2023-04-04T04:54:41;3.80;94.40
39023;DHT22;25908;51.984;5.928;2023-04-04T04:57:08;3.70;94.50
39023;DHT22;25908;51.984;5.928;2023-04-04T04:59:33;3.70;94.70
39023;DHT22;25908;51.984;5.928;2023-04-04T05:01:59;3.70;94.80
39023;DHT22;25908;51.984;5.928;2023-04-04T05:04:24;3.70;94.90
39023;DHT22;25908;51.984;5.928;2023-04-04T05:06:50;3.60;95.10
39023;DHT22;25908;51.984;5.928;2023-04-04T05:09:15;3.60;95.20
39023;DHT22;25908;51.984;5.928;2023-04-04T05:11:41;3.60;95.30
39023;DHT22;25908;51.984;5.928;2023-04-04T05:14:06;3.60;95.50
39023;DHT22;25908;51.984;5.928;2023-04-04T05:16:32;3.60;95.50
39023;DHT22;25908;51.984;5.928;2023-04-04T05:18:58;3.60;95.60
39023;DHT22;25908;51.984;5.928;2023-04-04T05:21:24;3.60;95.50
39023;DHT22;25908;51.984;5.928;2023-04-04T05:23:49;3.60;95.40
39023;DHT22;25908;51.984;5.928;2023-04-04T05:26:15;3.70;95.30
39023;DHT22;25908;51.984;5.928;2023-04-04T05:28:40;3.70;95.10
39023;DHT22;25908;51.984;5.928;2023-04-04T05:31:06;3.70;95.00
39023;DHT22;25908;51.984;5.928;2023-04-04T05:33:32;3.70;94.90
39023;DHT22;25908;51.984;5.928;2023-04-04T05:36:00;3.70;94.90
39023;DHT22;25908;51.984;5.928;2023-04-04T05:38:26;3.70;94.80
39023;DHT22;25908;51.984;5.928;2023-04-04T05:40:54;3.70;94.80
39023;DHT22;25908;51.984;5.928;2023-04-04T05:43:20;3.70;94.80
39023;DHT22;25908;51.984;5.928;2023-04-04T05:45:46;3.70;94.90
39023;DHT22;25908;51.984;5.928;2023-04-04T05:48:11;3.70;95.00
39023;DHT22;25908;51.984;5.928;2023-04-04T05:50:43;3.70;95.10
39023;DHT22;25908;51.984;5.928;2023-04-04T05:53:08;3.70;95.20
39023;DHT22;25908;51.984;5.928;2023-04-04T05:55:34;3.70;95.30
39023;DHT22;25908;51.984;5.928;2023-04-04T05:58:00;3.70;95.30
39023;DHT22;25908;51.984;5.928;2023-04-04T06:00:25;3.70;95.70
39023;DHT22;25908;51.984;5.928;2023-04-04T06:02:51;3.70;95.40
39023;DHT22;25908;51.984;5.928;2023-04-04T06:05:17;3.70;95.50
39023;DHT22;25908;51.984;5.928;2023-04-04T06:07:43;3.80;95.50
39023;DHT22;25908;51.984;5.928;2023-04-04T06:10:09;3.80;95.40
39023;DHT22;25908;51.984;5.928;2023-04-04T06:12:34;3.80;95.20
39023;DHT22;25908;51.984;5.928;2023-04-04T06:15:00;3.90;95.20
39023;DHT22;25908;51.984;5.928;2023-04-04T06:17:25;3.90;95.20
39023;DHT22;25908;51.984;5.928;2023-04-04T06:19:51;3.90;95.30
39023;DHT22;25908;51.984;5.928;2023-04-04T06:22:18;3.90;95.40
39023;DHT22;25908;51.984;5.928;2023-04-04T06:24:43;3.90;95.50
39023;DHT22;25908;51.984;5.928;2023-04-04T06:27:09;3.90;95.60
39023;DHT22;25908;51.984;5.928;2023-04-04T06:29:34;4.00;95.70
39023;DHT22;25908;51.984;5.928;2023-04-04T06:32:01;4.00;95.80
39023;DHT22;25908;51.984;5.928;2023-04-04T06:34:26;4.10;95.60
39023;DHT22;25908;51.984;5.928;2023-04-04T06:36:52;4.10;95.30
39023;DHT22;25908;51.984;5.928;2023-04-04T06:39:18;4.20;95.00
39023;DHT22;25908;51.984;5.928;2023-04-04T06:41:43;4.30;94.70
39023;DHT22;25908;51.984;5.928;2023-04-04T06:44:09;4.30;94.50
39023;DHT22;25908;51.984;5.928;2023-04-04T06:46:38;4.40;94.40
39023;DHT22;25908;51.984;5.928;2023-04-04T06:49:04;4.50;94.20
39023;DHT22;25908;51.984;5.928;2023-04-04T06:51:32;4.60;94.00
39023;DHT22;25908;51.984;5.928;2023-04-04T06:53:58;4.80;93.80
39023;DHT22;25908;51.984;5.928;2023-04-04T06:56:24;5.10;93.30
39023;DHT22;25908;51.984;5.928;2023-04-04T06:58:51;5.40;92.90
39023;DHT22;25908;51.984;5.928;2023-04-04T07:01:17;5.70;92.40
39023;DHT22;25908;51.984;5.928;2023-04-04T07:03:43;6.00;91.40
39023;DHT22;25908;51.984;5.928;2023-04-04T07:06:11;6.10;91.00
39023;DHT22;25908;51.984;5.928;2023-04-04T07:08:37;6.30;90.30
39023;DHT22;25908;51.984;5.928;2023-04-04T07:11:03;6.60;89.40
39023;DHT22;25908;51.984;5.928;2023-04-04T07:13:29;6.90;87.90
39023;DHT22;25908;51.984;5.928;2023-04-04T07:15:54;7.10;86.70
39023;DHT22;25908;51.984;5.928;2023-04-04T07:18:20;7.40;85.40
39023;DHT22;25908;51.984;5.928;2023-04-04T07:20:46;7.80;83.90
39023;DHT22;25908;51.984;5.928;2023-04-04T07:23:12;8.10;81.80
39023;DHT22;25908;51.984;5.928;2023-04-04T07:25:39;8.50;79.60
39023;DHT22;25908;51.984;5.928;2023-04-04T07:28:05;8.90;78.00
39023;DHT22;25908;51.984;5.928;2023-04-04T07:30:31;9.20;76.00
39023;DHT22;25908;51.984;5.928;2023-04-04T07:33:01;9.60;74.70
39023;DHT22;25908;51.984;5.928;2023-04-04T07:35:27;10.00;72.90
39023;DHT22;25908;51.984;5.928;2023-04-04T07:37:53;10.30;70.60
39023;DHT22;25908;51.984;5.928;2023-04-04T07:40:18;10.50;69.70
39023;DHT22;25908;51.984;5.928;2023-04-04T07:42:45;10.80;68.80
39023;DHT22;25908;51.984;5.928;2023-04-04T07:45:12;11.00;67.60
39023;DHT22;25908;51.984;5.928;2023-04-04T07:47:42;11.30;66.50
39023;DHT22;25908;51.984;5.928;2023-04-04T07:50:08;11.50;64.80
39023;DHT22;25908;51.984;5.928;2023-04-04T07:52:34;11.80;64.10
39023;DHT22;25908;51.984;5.928;2023-04-04T07:55:00;12.10;63.00
39023;DHT22;25908;51.984;5.928;2023-04-04T07:57:27;12.30;62.00
39023;DHT22;25908;51.984;5.928;2023-04-04T07:59:53;12.50;60.60
39023;DHT22;25908;51.984;5.928;2023-04-04T08:02:18;12.70;59.40
39023;DHT22;25908;51.984;5.928;2023-04-04T08:04:44;12.90;58.10
39023;DHT22;25908;51.984;5.928;2023-04-04T08:07:10;13.00;57.20
39023;DHT22;25908;51.984;5.928;2023-04-04T08:09:35;13.20;57.00
39023;DHT22;25908;51.984;5.928;2023-04-04T08:12:02;13.30;56.60
39023;DHT22;25908;51.984;5.928;2023-04-04T08:14:27;13.50;55.30
39023;DHT22;25908;51.984;5.928;2023-04-04T08:16:53;13.50;54.30
39023;DHT22;25908;51.984;5.928;2023-04-04T08:19:19;13.60;53.50
39023;DHT22;25908;51.984;5.928;2023-04-04T08:21:45;13.80;52.90
39023;DHT22;25908;51.984;5.928;2023-04-04T08:24:11;13.90;52.30
39023;DHT22;25908;51.984;5.928;2023-04-04T08:26:37;14.00;52.10
39023;DHT22;25908;51.984;5.928;2023-04-04T08:29:02;14.10;50.80
39023;DHT22;25908;51.984;5.928;2023-04-04T08:31:28;14.30;51.30
39023;DHT22;25908;51.984;5.928;2023-04-04T08:33:54;14.40;50.70
39023;DHT22;25908;51.984;5.928;2023-04-04T08:36:20;14.60;49.90
39023;DHT22;25908;51.984;5.928;2023-04-04T08:38:45;14.70;49.50
39023;DHT22;25908;51.984;5.928;2023-04-04T08:41:11;14.80;48.60
39023;DHT22;25908;51.984;5.928;2023-04-04T08:43:38;14.90;48.40
39023;DHT22;25908;51.984;5.928;2023-04-04T08:46:07;14.90;48.40
39023;DHT22;25908;51.984;5.928;2023-04-04T08:48:34;15.00;48.10
39023;DHT22;25908;51.984;5.928;2023-04-04T08:51:02;15.00;48.10
39023;DHT22;25908;51.984;5.928;2023-04-04T08:53:29;15.10;47.90
39023;DHT22;25908;51.984;5.928;2023-04-04T08:55:56;15.20;47.20
39023;DHT22;25908;51.984;5.928;2023-04-04T08:58:23;15.30;46.50
39023;DHT22;25908;51.984;5.928;2023-04-04T09:00:52;15.40;45.80
39023;DHT22;25908;51.984;5.928;2023-04-04T09:03:26;15.40;45.60
39023;DHT22;25908;51.984;5.928;2023-04-04T09:05:53;15.30;45.70
39023;DHT22;25908;51.984;5.928;2023-04-04T09:08:20;15.40;45.50
39023;DHT22;25908;51.984;5.928;2023-04-04T09:10:48;15.40;45.60
39023;DHT22;25908;51.984;5.928;2023-04-04T09:13:13;15.40;45.00
39023;DHT22;25908;51.984;5.928;2023-04-04T09:15:41;15.40;44.80
39023;DHT22;25908;51.984;5.928;2023-04-04T09:18:08;15.40;45.20
39023;DHT22;25908;51.984;5.928;2023-04-04T09:23:00;15.30;44.80
39023;DHT22;25908;51.984;5.928;2023-04-04T09:25:26;15.30;44.10
39023;DHT22;25908;51.984;5.928;2023-04-04T09:27:51;15.20;44.50
39023;DHT22;25908;51.984;5.928;2023-04-04T09:30:18;15.20;44.80
39023;DHT22;25908;51.984;5.928;2023-04-04T09:32:44;15.30;44.80
39023;DHT22;25908;51.984;5.928;2023-04-04T09:35:11;15.30;44.60
39023;DHT22;25908;51.984;5.928;2023-04-04T09:37:40;15.40;45.00
39023;DHT22;25908;51.984;5.928;2023-04-04T09:40:09;15.40;44.60
39023;DHT22;25908;51.984;5.928;2023-04-04T09:42:35;15.50;44.00
39023;DHT22;25908;51.984;5.928;2023-04-04T09:45:01;15.50;44.00
39023;DHT22;25908;51.984;5.928;2023-04-04T09:47:28;15.30;43.50
39023;DHT22;25908;51.984;5.928;2023-04-04T09:50:01;15.10;43.90
39023;DHT22;25908;51.984;5.928;2023-04-04T09:52:31;15.10;44.50
39023;DHT22;25908;51.984;5.928;2023-04-04T09:55:05;14.90;44.90
39023;DHT22;25908;51.984;5.928;2023-04-04T09:57:33;15.00;45.40
39023;DHT22;25908;51.984;5.928;2023-04-04T10:00:00;15.00;44.30
39023;DHT22;25908;51.984;5.928;2023-04-04T10:02:29;14.70;44.20
39023;DHT22;25908;51.984;5.928;2023-04-04T10:04:55;14.50;44.50
39023;DHT22;25908;51.984;5.928;2023-04-04T10:07:26;14.30;44.80
39023;DHT22;25908;51.984;5.928;2023-04-04T10:09:52;14.30;45.60
39023;DHT22;25908;51.984;5.928;2023-04-04T10:12:23;14.20;45.20
39023;DHT22;25908;51.984;5.928;2023-04-04T10:14:54;14.10;45.20
39023;DHT22;25908;51.984;5.928;2023-04-04T10:17:20;14.00;45.10
39023;DHT22;25908;51.984;5.928;2023-04-04T10:19:46;13.80;45.40
39023;DHT22;25908;51.984;5.928;2023-04-04T10:22:13;13.70;46.00
39023;DHT22;25908;51.984;5.928;2023-04-04T10:24:40;13.80;46.30
39023;DHT22;25908;51.984;5.928;2023-04-04T10:27:06;13.70;46.30
39023;DHT22;25908;51.984;5.928;2023-04-04T10:29:31;13.70;46.70
39023;DHT22;25908;51.984;5.928;2023-04-04T10:32:05;13.80;47.30
39023;DHT22;25908;51.984;5.928;2023-04-04T10:34:38;13.90;47.00
39023;DHT22;25908;51.984;5.928;2023-04-04T10:37:08;14.00;46.90
39023;DHT22;25908;51.984;5.928;2023-04-04T10:39:51;14.00;46.80
39023;DHT22;25908;51.984;5.928;2023-04-04T10:42:18;14.00;46.90
39023;DHT22;25908;51.984;5.928;2023-04-04T10:44:44;13.90;47.20
39023;DHT22;25908;51.984;5.928;2023-04-04T10:47:14;13.80;47.40
39023;DHT22;25908;51.984;5.928;2023-04-04T10:49:45;13.50;47.60
39023;DHT22;25908;51.984;5.928;2023-04-04T10:52:17;13.30;48.00
39023;DHT22;25908;51.984;5.928;2023-04-04T10:54:44;13.10;48.20
39023;DHT22;25908;51.984;5.928;2023-04-04T10:57:11;12.90;48.70
39023;DHT22;25908;51.984;5.928;2023-04-04T11:05:31;12.80;49.80
39023;DHT22;25908;51.984;5.928;2023-04-04T11:08:04;12.80;50.20
39023;DHT22;25908;51.984;5.928;2023-04-04T11:10:36;12.80;50.10
39023;DHT22;25908;51.984;5.928;2023-04-04T11:13:08;12.90;50.40
39023;DHT22;25908;51.984;5.928;2023-04-04T11:15:58;12.90;49.60
39023;DHT22;25908;51.984;5.928;2023-04-04T11:21:05;12.70;49.60
39023;DHT22;25908;51.984;5.928;2023-04-04T11:26:11;12.50;50.40
39023;DHT22;25908;51.984;5.928;2023-04-04T11:41:55;12.20;51.00
39023;DHT22;25908;51.984;5.928;2023-04-04T11:44:25;12.10;50.40
39023;DHT22;25908;51.984;5.928;2023-04-04T11:49:28;12.10;50.90
39023;DHT22;25908;51.984;5.928;2023-04-04T11:51:55;12.20;50.50
39023;DHT22;25908;51.984;5.928;2023-04-04T11:54:21;12.10;50.60
39023;DHT22;25908;51.984;5.928;2023-04-04T11:56:47;12.10;51.10
39023;DHT22;25908;51.984;5.928;2023-04-04T11:59:17;12.10;51.20
39023;DHT22;25908;51.984;5.928;2023-04-04T12:01:44;12.00;51.10
39023;DHT22;25908;51.984;5.928;2023-04-04T12:04:10;12.00;51.30
39023;DHT22;25908;51.984;5.928;2023-04-04T12:06:37;12.00;52.10
39023;DHT22;25908;51.984;5.928;2023-04-04T12:09:04;12.20;51.70
39023;DHT22;25908;51.984;5.928;2023-04-04T12:11:30;12.20;50.80
39023;DHT22;25908;51.984;5.928;2023-04-04T12:13:58;12.20;51.00
39023;DHT22;25908;51.984;5.928;2023-04-04T12:16:24;12.10;50.40
39023;DHT22;25908;51.984;5.928;2023-04-04T12:18:49;12.00;50.00
39023;DHT22;25908;51.984;5.928;2023-04-04T12:21:16;11.80;50.60
39023;DHT22;25908;51.984;5.928;2023-04-04T12:23:42;11.70;50.70
39023;DHT22;25908;51.984;5.928;2023-04-04T12:26:07;11.60;50.60
39023;DHT22;25908;51.984;5.928;2023-04-04T12:28:34;11.50;50.90
39023;DHT22;25908;51.984;5.928;2023-04-04T12:31:03;11.40;50.00
39023;DHT22;25908;51.984;5.928;2023-04-04T12:33:32;11.30;50.50
39023;DHT22;25908;51.984;5.928;2023-04-04T12:35:59;11.40;50.90
39023;DHT22;25908;51.984;5.928;2023-04-04T12:38:24;11.40;50.90
39023;DHT22;25908;51.984;5.928;2023-04-04T12:40:51;11.40;50.90
39023;DHT22;25908;51.984;5.928;2023-04-04T12:43:17;11.40;51.00
39023;DHT22;25908;51.984;5.928;2023-04-04T12:45:45;11.40;50.80
39023;DHT22;25908;51.984;5.928;2023-04-04T12:48:14;11.40;51.00
39023;DHT22;25908;51.984;5.928;2023-04-04T12:51:11;11.40;51.00
39023;DHT22;25908;51.984;5.928;2023-04-04T12:53:50;11.30;50.80
39023;DHT22;25908;51.984;5.928;2023-04-04T12:56:18;11.30;51.20
39023;DHT22;25908;51.984;5.928;2023-04-04T12:58:48;11.40;51.50
39023;DHT22;25908;51.984;5.928;2023-04-04T13:01:15;11.40;52.00
39023;DHT22;25908;51.984;5.928;2023-04-04T13:03:41;11.40;51.90
39023;DHT22;25908;51.984;5.928;2023-04-04T13:06:12;11.40;52.00
39023;DHT22;25908;51.984;5.928;2023-04-04T13:08:52;11.40;52.50
39023;DHT22;25908;51.984;5.928;2023-04-04T13:11:18;11.40;52.40
39023;DHT22;25908;51.984;5.928;2023-04-04T13:13:44;11.50;52.00
39023;DHT22;25908;51.984;5.928;2023-04-04T13:16:27;11.50;51.90
39023;DHT22;25908;51.984;5.928;2023-04-04T13:18:54;11.40;51.90
39023;DHT22;25908;51.984;5.928;2023-04-04T13:21:19;11.40;52.10
39023;DHT22;25908;51.984;5.928;2023-04-04T13:23:45;11.50;52.10
39023;DHT22;25908;51.984;5.928;2023-04-04T13:26:11;11.50;51.50
39023;DHT22;25908;51.984;5.928;2023-04-04T13:28:37;11.40;51.50
39023;DHT22;25908;51.984;5.928;2023-04-04T13:31:06;11.40;51.20
39023;DHT22;25908;51.984;5.928;2023-04-04T13:33:33;11.40;50.60
39023;DHT22;25908;51.984;5.928;2023-04-04T13:36:00;11.30;50.60
39023;DHT22;25908;51.984;5.928;2023-04-04T13:38:27;11.30;50.90
39023;DHT22;25908;51.984;5.928;2023-04-04T13:40:53;11.30;51.30
39023;DHT22;25908;51.984;5.928;2023-04-04T13:43:19;11.30;51.30
39023;DHT22;25908;51.984;5.928;2023-04-04T13:45:45;11.30;51.20
39023;DHT22;25908;51.984;5.928;2023-04-04T13:48:11;11.30;50.80
39023;DHT22;25908;51.984;5.928;2023-04-04T13:50:39;11.30;50.60
39023;DHT22;25908;51.984;5.928;2023-04-04T13:53:05;11.20;50.80
39023;DHT22;25908;51.984;5.928;2023-04-04T13:55:32;11.20;51.20
39023;DHT22;25908;51.984;5.928;2023-04-04T13:57:57;11.20;51.40
39023;DHT22;25908;51.984;5.928;2023-04-04T14:00:23;11.30;51.50
39023;DHT22;25908;51.984;5.928;2023-04-04T14:02:49;11.30;51.10
39023;DHT22;25908;51.984;5.928;2023-04-04T14:05:17;11.30;51.20
39023;DHT22;25908;51.984;5.928;2023-04-04T14:07:42;11.40;51.30
39023;DHT22;25908;51.984;5.928;2023-04-04T14:10:08;11.40;51.30
39023;DHT22;25908;51.984;5.928;2023-04-04T14:12:36;11.50;51.00
39023;DHT22;25908;51.984;5.928;2023-04-04T14:15:03;11.50;51.20
39023;DHT22;25908;51.984;5.928;2023-04-04T14:17:28;11.40;50.70
39023;DHT22;25908;51.984;5.928;2023-04-04T14:19:54;11.40;50.70
39023;DHT22;25908;51.984;5.928;2023-04-04T14:22:19;11.50;51.20
39023;DHT22;25908;51.984;5.928;2023-04-04T14:24:45;11.50;51.40
39023;DHT22;25908;51.984;5.928;2023-04-04T14:27:11;11.50;50.90
39023;DHT22;25908;51.984;5.928;2023-04-04T14:29:36;11.50;50.80
39023;DHT22;25908;51.984;5.928;2023-04-04T14:32:02;11.60;50.90
39023;DHT22;25908;51.984;5.928;2023-04-04T14:34:28;11.60;50.90
39023;DHT22;25908;51.984;5.928;2023-04-04T14:36:53;11.50;50.70
39023;DHT22;25908;51.984;5.928;2023-04-04T14:39:19;11.50;50.60
39023;DHT22;25908;51.984;5.928;2023-04-04T14:41:45;11.40;50.50
39023;DHT22;25908;51.984;5.928;2023-04-04T14:44:10;11.40;50.70
39023;DHT22;25908;51.984;5.928;2023-04-04T14:46:36;11.30;51.00
39023;DHT22;25908;51.984;5.928;2023-04-04T14:49:02;11.30;51.20
39023;DHT22;25908;51.984;5.928;2023-04-04T14:51:28;11.30;50.90
39023;DHT22;25908;51.984;5.928;2023-04-04T14:53:55;11.30;51.10
39023;DHT22;25908;51.984;5.928;2023-04-04T14:56:21;11.20;51.10
39023;DHT22;25908;51.984;5.928;2023-04-04T14:58:47;11.20;51.00
39023;DHT22;25908;51.984;5.928;2023-04-04T15:01:13;11.20;50.40
39023;DHT22;25908;51.984;5.928;2023-04-04T15:03:39;11.20;50.10
39023;DHT22;25908;51.984;5.928;2023-04-04T15:06:04;11.30;50.10
39023;DHT22;25908;51.984;5.928;2023-04-04T15:08:30;11.30;50.50
39023;DHT22;25908;51.984;5.928;2023-04-04T15:10:56;11.30;51.00
39023;DHT22;25908;51.984;5.928;2023-04-04T15:13:21;11.30;51.20
39023;DHT22;25908;51.984;5.928;2023-04-04T15:15:47;11.30;51.20
39023;DHT22;25908;51.984;5.928;2023-04-04T15:18:13;11.40;50.80
39023;DHT22;25908;51.984;5.928;2023-04-04T15:20:39;11.40;50.40
39023;DHT22;25908;51.984;5.928;2023-04-04T15:23:05;11.50;50.10
39023;DHT22;25908;51.984;5.928;2023-04-04T15:25:31;11.50;49.70
39023;DHT22;25908;51.984;5.928;2023-04-04T15:27:57;11.50;49.40
39023;DHT22;25908;51.984;5.928;2023-04-04T15:30:23;11.50;49.40
39023;DHT22;25908;51.984;5.928;2023-04-04T15:32:49;11.60;49.30
39023;DHT22;25908;51.984;5.928;2023-04-04T15:35:17;11.60;49.90
39023;DHT22;25908;51.984;5.928;2023-04-04T15:37:42;11.60;49.50
39023;DHT22;25908;51.984;5.928;2023-04-04T15:40:08;11.60;50.10
39023;DHT22;25908;51.984;5.928;2023-04-04T15:42:35;11.60;50.70
39023;DHT22;25908;51.984;5.928;2023-04-04T15:45:00;11.60;50.90
39023;DHT22;25908;51.984;5.928;2023-04-04T15:47:26;11.60;51.00
39023;DHT22;25908;51.984;5.928;2023-04-04T15:49:51;11.70;50.90
39023;DHT22;25908;51.984;5.928;2023-04-04T15:52:17;11.70;50.70
39023;DHT22;25908;51.984;5.928;2023-04-04T15:54:42;11.70;50.10
39023;DHT22;25908;51.984;5.928;2023-04-04T15:57:08;11.70;50.10
39023;DHT22;25908;51.984;5.928;2023-04-04T15:59:34;11.70;49.60
39023;DHT22;25908;51.984;5.928;2023-04-04T16:02:00;11.70;49.30
39023;DHT22;25908;51.984;5.928;2023-04-04T16:04:25;11.60;49.00
39023;DHT22;25908;51.984;5.928;2023-04-04T16:06:51;11.60;48.90